createdAt,value
2017-10-28T00:03:54.632Z,1019.47
2017-10-28T00:13:54.604Z,1019.35
2017-10-28T00:23:54.670Z,1019.22
2017-10-28T00:33:54.633Z,1018.87
2017-10-28T00:43:54.676Z,1018.85
2017-10-28T00:53:54.636Z,1018.84
2017-10-28T01:03:54.709Z,1018.63
2017-10-28T01:13:54.665Z,1018.29
2017-10-28T01:23:54.626Z,1018.3
2017-10-28T01:33:54.682Z,1017.96
2017-10-28T01:43:54.648Z,1017.79
2017-10-28T01:53:54.702Z,1017.62
2017-10-28T02:03:54.680Z,1017.41
2017-10-28T02:13:54.738Z,1017.26
2017-10-28T02:23:54.689Z,1017.13
2017-10-28T02:33:54.759Z,1016.81
2017-10-28T02:43:54.709Z,1016.66
2017-10-28T02:53:54.779Z,1016.51
2017-10-28T03:03:54.737Z,1016.34
2017-10-28T03:13:54.811Z,1016.15
2017-10-28T03:23:54.762Z,1015.97
2017-10-28T03:33:54.725Z,1015.83
2017-10-28T03:43:54.798Z,1015.79
2017-10-28T03:53:54.755Z,1015.63
2017-10-28T04:03:54.816Z,1015.52
2017-10-28T04:13:54.762Z,1015.21
2017-10-28T04:23:54.838Z,1015.08
2017-10-28T04:33:54.820Z,1014.9
2017-10-28T04:43:54.866Z,1014.74
2017-10-28T04:53:54.840Z,1014.79
2017-10-28T05:03:54.883Z,1014.51
2017-10-28T05:13:54.845Z,1014.34
2017-10-28T05:23:54.919Z,1014.03
2017-10-28T05:33:54.865Z,1013.81
2017-10-28T05:43:54.936Z,1013.62
2017-10-28T05:53:54.898Z,1013.08
2017-10-28T06:03:54.951Z,1012.92
2017-10-28T06:13:54.909Z,1013.12
2017-10-28T06:23:54.980Z,1013.35
2017-10-28T06:33:54.957Z,1013.52
2017-10-28T06:43:54.893Z,1013.21
2017-10-28T06:53:54.961Z,1013
2017-10-28T07:03:54.941Z,1012.87
2017-10-28T07:13:54.977Z,1012.74
2017-10-28T07:23:54.934Z,1012.55
2017-10-28T07:33:55.018Z,1012.81
2017-10-28T07:43:54.970Z,1012.97
2017-10-28T07:53:55.039Z,1012.95
2017-10-28T08:03:54.969Z,1012.45
2017-10-28T08:13:55.062Z,1012.81
2017-10-28T08:23:55.019Z,1012.77
2017-10-28T08:33:55.086Z,1012.46
2017-10-28T08:43:55.086Z,1012.46
2017-10-28T08:54:06.505Z,1012.26
2017-10-28T09:03:57.652Z,1012.02
2017-10-28T09:13:55.131Z,1011.75
2017-10-28T09:23:55.088Z,1011.68
2017-10-28T09:33:55.035Z,1011.66
2017-10-28T09:43:55.146Z,1011.71
2017-10-28T09:53:55.077Z,1011.66
2017-10-28T10:03:55.143Z,1011.72
2017-10-28T10:13:55.095Z,1011.49
2017-10-28T10:23:55.157Z,1011.36
2017-10-28T10:33:55.220Z,1011.18
2017-10-28T10:43:55.181Z,1011.07
2017-10-28T10:53:55.256Z,1011.04
2017-10-28T11:03:55.189Z,1010.78
2017-10-28T11:13:55.159Z,1010.56
2017-10-28T11:23:55.218Z,1010.27
2017-10-28T11:33:55.182Z,1010.17
2017-10-28T11:43:55.145Z,1010.23
2017-10-28T11:53:55.158Z,1009.91
2017-10-28T12:03:55.166Z,1009.74
2017-10-28T12:13:55.170Z,1009.1
2017-10-28T12:23:56.618Z,1009.02
2017-10-28T12:33:55.265Z,1008.88
2017-10-28T12:43:55.367Z,1008.55
2017-10-28T12:53:55.473Z,1008.4
2017-10-28T13:03:55.266Z,1008.44
2017-10-28T13:13:55.355Z,1008.49
2017-10-28T13:23:55.233Z,1008.47
2017-10-28T13:33:55.314Z,1008.48
2017-10-28T13:43:55.559Z,1008.5
2017-10-28T13:53:55.373Z,1008.14
2017-10-28T14:03:55.330Z,1008.04
2017-10-28T14:13:55.385Z,1008.06
2017-10-28T14:23:55.343Z,1008.01
2017-10-28T14:33:55.394Z,1007.71
2017-10-28T14:43:55.404Z,1007.63
2017-10-28T14:53:55.397Z,1007.41
2017-10-28T15:03:55.457Z,1007.35
2017-10-28T15:13:55.381Z,1007.13
2017-10-28T15:23:55.462Z,1007
2017-10-28T15:33:55.400Z,1006.81
2017-10-28T15:43:56.289Z,1006.66
2017-10-28T15:53:55.437Z,1006.45
2017-10-28T16:03:55.494Z,1006.18
2017-10-28T16:13:55.455Z,1006.06
2017-10-28T16:23:55.504Z,1005.75
2017-10-28T16:33:55.466Z,1005.64
2017-10-28T16:43:56.489Z,1005.57
2017-10-28T16:53:55.501Z,1005.47
2017-10-28T17:03:55.452Z,1005.25
2017-10-28T17:13:55.458Z,1005.08
2017-10-28T17:23:55.478Z,1004.67
2017-10-28T17:33:57.491Z,1004.52
2017-10-28T17:43:55.665Z,1004.43
2017-10-28T17:53:55.565Z,1004.37
2017-10-28T18:03:55.525Z,1004.41
2017-10-28T18:13:55.597Z,1004.2
2017-10-28T18:23:55.557Z,1003.97
2017-10-28T18:33:55.607Z,1003.63
2017-10-28T18:43:55.573Z,1003.37
2017-10-28T18:53:56.557Z,1003.34
2017-10-28T19:03:56.683Z,1002.94
2017-10-28T19:13:55.666Z,1002.76
2017-10-28T19:23:55.622Z,1002.5
2017-10-28T19:33:56.602Z,1002.32
2017-10-28T19:43:55.600Z,1002
2017-10-28T19:53:55.654Z,1001.73
2017-10-28T20:03:55.606Z,1001.57
2017-10-28T20:13:55.707Z,1001.41
2017-10-28T20:23:55.712Z,1001.31
2017-10-28T20:33:56.397Z,1001.1
2017-10-28T20:43:55.658Z,1000.97
2017-10-28T20:53:55.716Z,1000.73
2017-10-28T21:03:55.681Z,1000.51
2017-10-28T21:13:55.735Z,1000.21
2017-10-28T21:23:55.705Z,1000.05
2017-10-28T21:33:55.767Z,999.78
2017-10-28T21:43:55.738Z,999.73
2017-10-28T21:53:55.780Z,999.48
2017-10-28T22:03:55.748Z,999.21
2017-10-28T22:13:55.818Z,998.81
2017-10-28T22:23:55.773Z,998.68
2017-10-28T22:33:55.860Z,998.45
2017-10-28T22:43:55.795Z,998.29
2017-10-28T22:53:55.860Z,998.27
2017-10-28T23:03:55.825Z,998.18
2017-10-28T23:13:55.879Z,997.82
2017-10-28T23:23:55.841Z,997.62
2017-10-28T23:33:55.907Z,997.28
2017-10-28T23:43:55.864Z,997.29
2017-10-28T23:53:55.831Z,997.21
